sensor_id;sensor_type;location;lat;lon;timestamp;P1;durP1;ratioP1;P2;durP2;ratioP2
70543;SDS011;58097;48.364;-1.224;2023-04-05T00:00:37;14.00;;;8.65;;
70543;SDS011;58097;48.364;-1.224;2023-04-05T00:03:03;13.57;;;8.02;;
70543;SDS011;58097;48.364;-1.224;2023-04-05T00:05:28;17.88;;;9.32;;
70543;SDS011;58097;48.364;-1.224;2023-04-05T00:08:01;14.30;;;8.23;;
70543;SDS011;58097;48.364;-1.224;2023-04-05T00:10:28;18.88;;;9.65;;
70543;SDS011;58097;48.364;-1.224;2023-04-05T00:12:55;13.13;;;9.02;;
70543;SDS011;58097;48.364;-1.224;2023-04-05T00:15:21;15.68;;;8.05;;
70543;SDS011;58097;48.364;-1.224;2023-04-05T00:17:47;12.48;;;8.27;;
70543;SDS011;58097;48.364;-1.224;2023-04-05T00:20:12;15.13;;;8.77;;
70543;SDS011;58097;48.364;-1.224;2023-04-05T00:22:39;14.70;;;7.55;;
70543;SDS011;58097;48.364;-1.224;2023-04-05T00:25:07;12.65;;;8.05;;
70543;SDS011;58097;48.364;-1.224;2023-04-05T00:27:33;15.85;;;8.57;;
70543;SDS011;58097;48.364;-1.224;2023-04-05T00:29:58;15.00;;;7.20;;
70543;SDS011;58097;48.364;-1.224;2023-04-05T00:32:24;12.02;;;6.60;;
70543;SDS011;58097;48.364;-1.224;2023-04-05T00:34:49;10.80;;;6.80;;
70543;SDS011;58097;48.364;-1.224;2023-04-05T00:37:14;16.80;;;7.10;;
70543;SDS011;58097;48.364;-1.224;2023-04-05T00:39:40;12.40;;;6.97;;
70543;SDS011;58097;48.364;-1.224;2023-04-05T00:42:06;11.00;;;6.93;;
70543;SDS011;58097;48.364;-1.224;2023-04-05T00:44:33;10.35;;;6.75;;
70543;SDS011;58097;48.364;-1.224;2023-04-05T00:47:02;13.77;;;7.03;;
70543;SDS011;58097;48.364;-1.224;2023-04-05T00:49:32;10.40;;;6.78;;
70543;SDS011;58097;48.364;-1.224;2023-04-05T00:51:58;13.25;;;8.02;;
70543;SDS011;58097;48.364;-1.224;2023-04-05T00:54:25;12.48;;;6.43;;
70543;SDS011;58097;48.364;-1.224;2023-04-05T00:56:52;13.20;;;7.78;;
70543;SDS011;58097;48.364;-1.224;2023-04-05T00:59:19;13.07;;;6.75;;
70543;SDS011;58097;48.364;-1.224;2023-04-05T01:01:45;7.93;;;5.70;;
70543;SDS011;58097;48.364;-1.224;2023-04-05T01:04:26;9.68;;;7.10;;
70543;SDS011;58097;48.364;-1.224;2023-04-05T01:07:08;12.75;;;7.15;;
70543;SDS011;58097;48.364;-1.224;2023-04-05T01:09:49;14.15;;;7.45;;
70543;SDS011;58097;48.364;-1.224;2023-04-05T01:12:20;11.55;;;7.90;;
70543;SDS011;58097;48.364;-1.224;2023-04-05T01:14:51;10.60;;;6.90;;
70543;SDS011;58097;48.364;-1.224;2023-04-05T01:17:20;15.82;;;7.68;;
70543;SDS011;58097;48.364;-1.224;2023-04-05T01:19:56;10.65;;;7.20;;
70543;SDS011;58097;48.364;-1.224;2023-04-05T01:30:32;11.68;;;7.53;;
70543;SDS011;58097;48.364;-1.224;2023-04-05T01:36:05;13.55;;;7.30;;
70543;SDS011;58097;48.364;-1.224;2023-04-05T01:38:41;11.10;;;7.30;;
70543;SDS011;58097;48.364;-1.224;2023-04-05T01:41:10;21.55;;;7.85;;
70543;SDS011;58097;48.364;-1.224;2023-04-05T01:43:35;12.10;;;7.40;;
70543;SDS011;58097;48.364;-1.224;2023-04-05T01:46:01;11.95;;;6.70;;
70543;SDS011;58097;48.364;-1.224;2023-04-05T01:48:26;12.02;;;6.85;;
70543;SDS011;58097;48.364;-1.224;2023-04-05T01:50:51;14.25;;;7.60;;
70543;SDS011;58097;48.364;-1.224;2023-04-05T01:53:17;13.88;;;7.60;;
70543;SDS011;58097;48.364;-1.224;2023-04-05T01:55:43;16.15;;;7.80;;
70543;SDS011;58097;48.364;-1.224;2023-04-05T01:58:08;13.98;;;7.80;;
70543;SDS011;58097;48.364;-1.224;2023-04-05T02:00:33;11.18;;;6.53;;
70543;SDS011;58097;48.364;-1.224;2023-04-05T02:02:59;14.93;;;8.13;;
70543;SDS011;58097;48.364;-1.224;2023-04-05T02:05:24;13.20;;;8.05;;
70543;SDS011;58097;48.364;-1.224;2023-04-05T02:07:49;10.27;;;6.15;;
70543;SDS011;58097;48.364;-1.224;2023-04-05T02:10:16;9.68;;;6.13;;
70543;SDS011;58097;48.364;-1.224;2023-04-05T02:12:41;14.13;;;7.10;;
70543;SDS011;58097;48.364;-1.224;2023-04-05T02:15:07;13.02;;;7.07;;
70543;SDS011;58097;48.364;-1.224;2023-04-05T02:17:33;14.82;;;7.88;;
70543;SDS011;58097;48.364;-1.224;2023-04-05T02:20:03;14.02;;;7.20;;
70543;SDS011;58097;48.364;-1.224;2023-04-05T02:22:31;12.50;;;7.35;;
70543;SDS011;58097;48.364;-1.224;2023-04-05T02:24:56;10.57;;;6.25;;
70543;SDS011;58097;48.364;-1.224;2023-04-05T02:27:22;10.15;;;6.75;;
70543;SDS011;58097;48.364;-1.224;2023-04-05T02:29:47;9.32;;;6.68;;
70543;SDS011;58097;48.364;-1.224;2023-04-05T02:32:12;12.30;;;6.85;;
70543;SDS011;58097;48.364;-1.224;2023-04-05T02:34:37;9.40;;;6.57;;
70543;SDS011;58097;48.364;-1.224;2023-04-05T02:37:05;10.60;;;6.03;;
70543;SDS011;58097;48.364;-1.224;2023-04-05T02:39:31;14.05;;;7.22;;
70543;SDS011;58097;48.364;-1.224;2023-04-05T02:41:56;12.40;;;6.68;;
70543;SDS011;58097;48.364;-1.224;2023-04-05T02:44:23;11.45;;;7.32;;
70543;SDS011;58097;48.364;-1.224;2023-04-05T02:46:48;14.68;;;6.80;;
70543;SDS011;58097;48.364;-1.224;2023-04-05T02:49:13;7.22;;;5.35;;
70543;SDS011;58097;48.364;-1.224;2023-04-05T02:51:39;10.10;;;6.20;;
70543;SDS011;58097;48.364;-1.224;2023-04-05T02:54:05;10.98;;;6.25;;
70543;SDS011;58097;48.364;-1.224;2023-04-05T02:56:30;11.77;;;6.43;;
70543;SDS011;58097;48.364;-1.224;2023-04-05T02:58:56;10.60;;;6.20;;
70543;SDS011;58097;48.364;-1.224;2023-04-05T03:01:21;8.80;;;6.30;;
70543;SDS011;58097;48.364;-1.224;2023-04-05T03:03:47;11.02;;;6.45;;
70543;SDS011;58097;48.364;-1.224;2023-04-05T03:06:13;12.43;;;6.97;;
70543;SDS011;58097;48.364;-1.224;2023-04-05T03:08:38;10.93;;;6.55;;
70543;SDS011;58097;48.364;-1.224;2023-04-05T03:11:08;11.75;;;6.22;;
70543;SDS011;58097;48.364;-1.224;2023-04-05T03:13:35;10.57;;;6.53;;
70543;SDS011;58097;48.364;-1.224;2023-04-05T03:16:01;10.85;;;6.82;;
70543;SDS011;58097;48.364;-1.224;2023-04-05T03:18:26;9.13;;;5.82;;
70543;SDS011;58097;48.364;-1.224;2023-04-05T03:20:53;12.10;;;6.00;;
70543;SDS011;58097;48.364;-1.224;2023-04-05T03:23:26;10.90;;;6.78;;
70543;SDS011;58097;48.364;-1.224;2023-04-05T03:26:03;9.00;;;5.18;;
70543;SDS011;58097;48.364;-1.224;2023-04-05T03:28:28;11.38;;;7.20;;
70543;SDS011;58097;48.364;-1.224;2023-04-05T03:30:56;11.48;;;6.10;;
70543;SDS011;58097;48.364;-1.224;2023-04-05T03:33:22;9.20;;;6.18;;
70543;SDS011;58097;48.364;-1.224;2023-04-05T03:35:47;11.65;;;6.47;;
70543;SDS011;58097;48.364;-1.224;2023-04-05T03:38:13;11.10;;;5.78;;
70543;SDS011;58097;48.364;-1.224;2023-04-05T03:40:38;9.77;;;6.30;;
70543;SDS011;58097;48.364;-1.224;2023-04-05T03:43:04;8.48;;;5.95;;
70543;SDS011;58097;48.364;-1.224;2023-04-05T03:45:29;11.23;;;5.47;;
70543;SDS011;58097;48.364;-1.224;2023-04-05T03:47:55;12.27;;;6.57;;
70543;SDS011;58097;48.364;-1.224;2023-04-05T03:50:22;9.82;;;5.95;;
70543;SDS011;58097;48.364;-1.224;2023-04-05T03:52:48;12.13;;;7.32;;
70543;SDS011;58097;48.364;-1.224;2023-04-05T03:55:13;9.23;;;5.95;;
70543;SDS011;58097;48.364;-1.224;2023-04-05T03:57:41;11.25;;;5.95;;
70543;SDS011;58097;48.364;-1.224;2023-04-05T04:00:06;14.93;;;7.20;;
70543;SDS011;58097;48.364;-1.224;2023-04-05T04:02:39;12.05;;;6.35;;
70543;SDS011;58097;48.364;-1.224;2023-04-05T04:05:06;12.07;;;6.05;;
70543;SDS011;58097;48.364;-1.224;2023-04-05T04:07:31;15.50;;;6.57;;
70543;SDS011;58097;48.364;-1.224;2023-04-05T04:09:57;17.08;;;7.05;;
70543;SDS011;58097;48.364;-1.224;2023-04-05T04:12:22;11.27;;;7.45;;
70543;SDS011;58097;48.364;-1.224;2023-04-05T04:14:47;12.48;;;6.97;;
70543;SDS011;58097;48.364;-1.224;2023-04-05T04:17:24;13.45;;;6.90;;
70543;SDS011;58097;48.364;-1.224;2023-04-05T04:19:53;11.52;;;6.32;;
70543;SDS011;58097;48.364;-1.224;2023-04-05T04:22:18;15.02;;;6.07;;
70543;SDS011;58097;48.364;-1.224;2023-04-05T04:24:45;9.23;;;6.13;;
70543;SDS011;58097;48.364;-1.224;2023-04-05T04:27:14;8.73;;;6.30;;
70543;SDS011;58097;48.364;-1.224;2023-04-05T04:29:41;7.63;;;5.70;;
70543;SDS011;58097;48.364;-1.224;2023-04-05T04:32:10;12.20;;;6.47;;
70543;SDS011;58097;48.364;-1.224;2023-04-05T04:34:36;11.32;;;5.78;;
70543;SDS011;58097;48.364;-1.224;2023-04-05T04:37:02;12.98;;;6.75;;
70543;SDS011;58097;48.364;-1.224;2023-04-05T04:39:28;9.75;;;5.97;;
70543;SDS011;58097;48.364;-1.224;2023-04-05T04:41:55;8.68;;;5.78;;
70543;SDS011;58097;48.364;-1.224;2023-04-05T04:44:21;12.40;;;6.97;;
70543;SDS011;58097;48.364;-1.224;2023-04-05T04:46:52;9.02;;;5.85;;
70543;SDS011;58097;48.364;-1.224;2023-04-05T04:49:18;10.35;;;6.07;;
70543;SDS011;58097;48.364;-1.224;2023-04-05T04:51:45;12.05;;;5.78;;
70543;SDS011;58097;48.364;-1.224;2023-04-05T04:54:11;8.88;;;5.53;;
70543;SDS011;58097;48.364;-1.224;2023-04-05T04:56:37;11.05;;;6.38;;
70543;SDS011;58097;48.364;-1.224;2023-04-05T04:59:02;11.52;;;7.30;;
70543;SDS011;58097;48.364;-1.224;2023-04-05T05:01:27;11.63;;;6.47;;
70543;SDS011;58097;48.364;-1.224;2023-04-05T05:03:53;13.07;;;6.38;;
70543;SDS011;58097;48.364;-1.224;2023-04-05T05:06:18;8.70;;;5.70;;
70543;SDS011;58097;48.364;-1.224;2023-04-05T05:08:46;12.60;;;6.07;;
70543;SDS011;58097;48.364;-1.224;2023-04-05T05:11:11;10.68;;;6.35;;
70543;SDS011;58097;48.364;-1.224;2023-04-05T05:13:37;10.93;;;7.00;;
70543;SDS011;58097;48.364;-1.224;2023-04-05T05:16:02;9.60;;;7.07;;
70543;SDS011;58097;48.364;-1.224;2023-04-05T05:18:29;8.77;;;5.18;;
70543;SDS011;58097;48.364;-1.224;2023-04-05T05:20:54;13.68;;;6.78;;
70543;SDS011;58097;48.364;-1.224;2023-04-05T05:23:20;10.73;;;6.30;;
70543;SDS011;58097;48.364;-1.224;2023-04-05T05:25:46;9.38;;;5.90;;
70543;SDS011;58097;48.364;-1.224;2023-04-05T05:28:11;12.10;;;5.72;;
70543;SDS011;58097;48.364;-1.224;2023-04-05T05:30:36;9.98;;;6.18;;
70543;SDS011;58097;48.364;-1.224;2023-04-05T05:33:02;11.40;;;6.95;;
70543;SDS011;58097;48.364;-1.224;2023-04-05T05:35:28;17.75;;;7.13;;
70543;SDS011;58097;48.364;-1.224;2023-04-05T05:37:53;13.25;;;6.97;;
70543;SDS011;58097;48.364;-1.224;2023-04-05T05:40:18;13.18;;;7.38;;
70543;SDS011;58097;48.364;-1.224;2023-04-05T05:42:44;14.45;;;6.32;;
70543;SDS011;58097;48.364;-1.224;2023-04-05T05:45:09;11.90;;;6.30;;
70543;SDS011;58097;48.364;-1.224;2023-04-05T05:47:35;13.30;;;6.85;;
70543;SDS011;58097;48.364;-1.224;2023-04-05T05:50:00;9.75;;;6.20;;
70543;SDS011;58097;48.364;-1.224;2023-04-05T05:52:26;16.58;;;7.13;;
70543;SDS011;58097;48.364;-1.224;2023-04-05T05:54:51;8.05;;;5.35;;
70543;SDS011;58097;48.364;-1.224;2023-04-05T05:57:16;9.13;;;5.78;;
70543;SDS011;58097;48.364;-1.224;2023-04-05T05:59:42;11.65;;;5.53;;
70543;SDS011;58097;48.364;-1.224;2023-04-05T06:02:07;11.93;;;5.35;;
70543;SDS011;58097;48.364;-1.224;2023-04-05T06:04:33;11.55;;;7.07;;
70543;SDS011;58097;48.364;-1.224;2023-04-05T06:06:58;13.07;;;5.95;;
70543;SDS011;58097;48.364;-1.224;2023-04-05T06:09:24;13.50;;;6.20;;
70543;SDS011;58097;48.364;-1.224;2023-04-05T06:11:53;13.93;;;6.32;;
70543;SDS011;58097;48.364;-1.224;2023-04-05T06:14:18;12.02;;;6.20;;
70543;SDS011;58097;48.364;-1.224;2023-04-05T06:16:44;13.55;;;6.03;;
70543;SDS011;58097;48.364;-1.224;2023-04-05T06:19:10;9.98;;;5.78;;
70543;SDS011;58097;48.364;-1.224;2023-04-05T06:21:36;7.93;;;5.65;;
70543;SDS011;58097;48.364;-1.224;2023-04-05T06:24:01;11.23;;;7.05;;
70543;SDS011;58097;48.364;-1.224;2023-04-05T06:26:26;13.63;;;6.25;;
70543;SDS011;58097;48.364;-1.224;2023-04-05T06:28:54;12.20;;;6.90;;
70543;SDS011;58097;48.364;-1.224;2023-04-05T06:31:20;14.38;;;6.47;;
70543;SDS011;58097;48.364;-1.224;2023-04-05T06:33:51;8.32;;;6.15;;
70543;SDS011;58097;48.364;-1.224;2023-04-05T06:36:16;12.43;;;6.57;;
70543;SDS011;58097;48.364;-1.224;2023-04-05T06:38:41;12.75;;;7.43;;
70543;SDS011;58097;48.364;-1.224;2023-04-05T06:41:07;14.10;;;6.80;;
70543;SDS011;58097;48.364;-1.224;2023-04-05T06:43:32;9.07;;;6.07;;
70543;SDS011;58097;48.364;-1.224;2023-04-05T06:45:58;13.45;;;7.65;;
70543;SDS011;58097;48.364;-1.224;2023-04-05T06:48:23;11.20;;;6.63;;
70543;SDS011;58097;48.364;-1.224;2023-04-05T06:50:55;8.52;;;5.90;;
70543;SDS011;58097;48.364;-1.224;2023-04-05T06:53:25;11.60;;;6.10;;
70543;SDS011;58097;48.364;-1.224;2023-04-05T06:55:52;11.85;;;6.05;;
70543;SDS011;58097;48.364;-1.224;2023-04-05T06:58:18;11.18;;;6.22;;
70543;SDS011;58097;48.364;-1.224;2023-04-05T07:00:43;10.68;;;7.10;;
70543;SDS011;58097;48.364;-1.224;2023-04-05T07:03:10;16.33;;;7.10;;
70543;SDS011;58097;48.364;-1.224;2023-04-05T07:05:35;11.43;;;6.50;;
70543;SDS011;58097;48.364;-1.224;2023-04-05T07:08:00;17.77;;;6.72;;
70543;SDS011;58097;48.364;-1.224;2023-04-05T07:10:26;17.27;;;6.15;;
70543;SDS011;58097;48.364;-1.224;2023-04-05T07:12:51;14.52;;;6.78;;
70543;SDS011;58097;48.364;-1.224;2023-04-05T07:15:17;10.93;;;5.97;;
70543;SDS011;58097;48.364;-1.224;2023-04-05T07:17:42;9.82;;;6.47;;
70543;SDS011;58097;48.364;-1.224;2023-04-05T07:20:07;13.27;;;5.97;;
70543;SDS011;58097;48.364;-1.224;2023-04-05T07:22:33;18.20;;;7.63;;
70543;SDS011;58097;48.364;-1.224;2023-04-05T07:24:59;12.55;;;7.40;;
70543;SDS011;58097;48.364;-1.224;2023-04-05T07:27:25;10.80;;;6.72;;
70543;SDS011;58097;48.364;-1.224;2023-04-05T07:29:51;15.18;;;6.45;;
70543;SDS011;58097;48.364;-1.224;2023-04-05T07:32:16;15.23;;;7.22;;
70543;SDS011;58097;48.364;-1.224;2023-04-05T07:34:41;11.55;;;6.75;;
70543;SDS011;58097;48.364;-1.224;2023-04-05T07:37:07;13.15;;;7.15;;
70543;SDS011;58097;48.364;-1.224;2023-04-05T07:39:32;10.95;;;6.53;;
70543;SDS011;58097;48.364;-1.224;2023-04-05T07:41:57;12.40;;;7.82;;
70543;SDS011;58097;48.364;-1.224;2023-04-05T07:44:23;13.23;;;6.72;;
70543;SDS011;58097;48.364;-1.224;2023-04-05T07:46:48;15.18;;;7.07;;
70543;SDS011;58097;48.364;-1.224;2023-04-05T07:49:14;16.42;;;8.40;;
70543;SDS011;58097;48.364;-1.224;2023-04-05T07:51:39;12.63;;;6.72;;
70543;SDS011;58097;48.364;-1.224;2023-04-05T07:54:07;21.55;;;7.07;;
70543;SDS011;58097;48.364;-1.224;2023-04-05T07:56:32;12.18;;;6.45;;
70543;SDS011;58097;48.364;-1.224;2023-04-05T07:58:57;15.10;;;7.13;;
70543;SDS011;58097;48.364;-1.224;2023-04-05T08:01:23;14.45;;;7.32;;
70543;SDS011;58097;48.364;-1.224;2023-04-05T08:03:52;15.55;;;7.45;;
70543;SDS011;58097;48.364;-1.224;2023-04-05T08:06:17;22.98;;;8.18;;
70543;SDS011;58097;48.364;-1.224;2023-04-05T08:08:43;18.33;;;7.00;;
70543;SDS011;58097;48.364;-1.224;2023-04-05T08:11:10;14.05;;;7.47;;
70543;SDS011;58097;48.364;-1.224;2023-04-05T08:13:36;12.75;;;8.30;;
70543;SDS011;58097;48.364;-1.224;2023-04-05T08:16:04;13.45;;;7.53;;
70543;SDS011;58097;48.364;-1.224;2023-04-05T08:18:30;12.52;;;6.85;;
70543;SDS011;58097;48.364;-1.224;2023-04-05T08:20:55;12.63;;;7.00;;
70543;SDS011;58097;48.364;-1.224;2023-04-05T08:23:21;14.38;;;7.30;;
70543;SDS011;58097;48.364;-1.224;2023-04-05T08:25:47;14.43;;;8.30;;
70543;SDS011;58097;48.364;-1.224;2023-04-05T08:28:12;9.45;;;6.60;;
70543;SDS011;58097;48.364;-1.224;2023-04-05T08:30:38;10.88;;;7.35;;
70543;SDS011;58097;48.364;-1.224;2023-04-05T08:33:04;12.82;;;8.05;;
70543;SDS011;58097;48.364;-1.224;2023-04-05T08:35:29;16.92;;;7.97;;
70543;SDS011;58097;48.364;-1.224;2023-04-05T08:37:55;13.95;;;7.70;;
70543;SDS011;58097;48.364;-1.224;2023-04-05T08:40:21;15.63;;;7.50;;
70543;SDS011;58097;48.364;-1.224;2023-04-05T08:42:56;12.77;;;7.80;;
70543;SDS011;58097;48.364;-1.224;2023-04-05T08:45:29;11.77;;;7.10;;
70543;SDS011;58097;48.364;-1.224;2023-04-05T08:47:58;13.40;;;8.20;;
70543;SDS011;58097;48.364;-1.224;2023-04-05T08:50:23;9.38;;;6.95;;
70543;SDS011;58097;48.364;-1.224;2023-04-05T08:52:48;15.32;;;7.82;;
70543;SDS011;58097;48.364;-1.224;2023-04-05T08:55:14;12.75;;;8.30;;
70543;SDS011;58097;48.364;-1.224;2023-04-05T08:57:42;17.50;;;7.95;;
70543;SDS011;58097;48.364;-1.224;2023-04-05T09:00:13;14.30;;;7.93;;
70543;SDS011;58097;48.364;-1.224;2023-04-05T09:02:40;14.07;;;8.43;;
70543;SDS011;58097;48.364;-1.224;2023-04-05T09:05:09;14.55;;;8.52;;
70543;SDS011;58097;48.364;-1.224;2023-04-05T09:07:35;12.55;;;8.27;;
70543;SDS011;58097;48.364;-1.224;2023-04-05T09:10:02;15.13;;;8.30;;
70543;SDS011;58097;48.364;-1.224;2023-04-05T09:12:30;14.05;;;8.18;;
70543;SDS011;58097;48.364;-1.224;2023-04-05T09:14:56;12.50;;;8.35;;
70543;SDS011;58097;48.364;-1.224;2023-04-05T09:17:25;13.82;;;8.10;;
70543;SDS011;58097;48.364;-1.224;2023-04-05T09:19:53;14.80;;;7.88;;
70543;SDS011;58097;48.364;-1.224;2023-04-05T09:22:18;17.10;;;8.05;;
70543;SDS011;58097;48.364;-1.224;2023-04-05T09:24:44;17.20;;;8.05;;
70543;SDS011;58097;48.364;-1.224;2023-04-05T09:29:40;14.40;;;8.70;;
70543;SDS011;58097;48.364;-1.224;2023-04-05T09:32:07;9.52;;;6.03;;
70543;SDS011;58097;48.364;-1.224;2023-04-05T09:34:34;12.63;;;7.20;;
70543;SDS011;58097;48.364;-1.224;2023-04-05T09:37:16;13.50;;;7.65;;
70543;SDS011;58097;48.364;-1.224;2023-04-05T09:39:44;13.55;;;7.00;;
70543;SDS011;58097;48.364;-1.224;2023-04-05T09:42:11;16.45;;;7.40;;
70543;SDS011;58097;48.364;-1.224;2023-04-05T09:47:27;12.35;;;7.55;;
70543;SDS011;58097;48.364;-1.224;2023-04-05T09:52:25;12.43;;;7.00;;
70543;SDS011;58097;48.364;-1.224;2023-04-05T09:54:58;11.98;;;7.50;;
70543;SDS011;58097;48.364;-1.224;2023-04-05T09:57:25;13.10;;;7.32;;
70543;SDS011;58097;48.364;-1.224;2023-04-05T09:59:52;13.32;;;7.60;;
70543;SDS011;58097;48.364;-1.224;2023-04-05T10:02:18;13.82;;;8.15;;
70543;SDS011;58097;48.364;-1.224;2023-04-05T10:04:45;12.48;;;7.50;;
70543;SDS011;58097;48.364;-1.224;2023-04-05T10:07:12;12.68;;;7.63;;
70543;SDS011;58097;48.364;-1.224;2023-04-05T10:09:39;15.18;;;6.80;;
70543;SDS011;58097;48.364;-1.224;2023-04-05T10:12:06;11.88;;;8.10;;
70543;SDS011;58097;48.364;-1.224;2023-04-05T10:14:36;12.15;;;7.38;;
70543;SDS011;58097;48.364;-1.224;2023-04-05T10:17:10;11.60;;;7.55;;
70543;SDS011;58097;48.364;-1.224;2023-04-05T10:22:16;11.20;;;6.65;;
70543;SDS011;58097;48.364;-1.224;2023-04-05T10:24:53;13.65;;;7.05;;
70543;SDS011;58097;48.364;-1.224;2023-04-05T10:27:29;10.88;;;6.78;;
70543;SDS011;58097;48.364;-1.224;2023-04-05T10:35:19;11.43;;;6.90;;
70543;SDS011;58097;48.364;-1.224;2023-04-05T10:40:20;11.75;;;6.88;;
70543;SDS011;58097;48.364;-1.224;2023-04-05T10:42:46;14.52;;;7.32;;
70543;SDS011;58097;48.364;-1.224;2023-04-05T10:45:13;17.70;;;8.57;;
70543;SDS011;58097;48.364;-1.224;2023-04-05T10:47:48;13.32;;;7.40;;
70543;SDS011;58097;48.364;-1.224;2023-04-05T10:50:23;13.20;;;7.60;;
70543;SDS011;58097;48.364;-1.224;2023-04-05T10:52:52;15.05;;;9.10;;
70543;SDS011;58097;48.364;-1.224;2023-04-05T10:55:17;17.10;;;9.07;;
70543;SDS011;58097;48.364;-1.224;2023-04-05T10:57:44;13.93;;;9.23;;
70543;SDS011;58097;48.364;-1.224;2023-04-05T11:00:11;13.77;;;8.90;;
70543;SDS011;58097;48.364;-1.224;2023-04-05T11:02:38;16.08;;;6.88;;
70543;SDS011;58097;48.364;-1.224;2023-04-05T11:05:05;14.35;;;8.27;;
70543;SDS011;58097;48.364;-1.224;2023-04-05T11:07:43;11.68;;;7.40;;
70543;SDS011;58097;48.364;-1.224;2023-04-05T11:10:16;12.73;;;7.35;;
70543;SDS011;58097;48.364;-1.224;2023-04-05T11:18:10;15.40;;;7.88;;
70543;SDS011;58097;48.364;-1.224;2023-04-05T11:20:53;12.43;;;6.57;;
70543;SDS011;58097;48.364;-1.224;2023-04-05T11:23:30;15.23;;;7.28;;
70543;SDS011;58097;48.364;-1.224;2023-04-05T11:26:03;13.15;;;7.78;;
70543;SDS011;58097;48.364;-1.224;2023-04-05T11:28:33;10.50;;;6.70;;
70543;SDS011;58097;48.364;-1.224;2023-04-05T11:31:13;12.93;;;6.75;;
70543;SDS011;58097;48.364;-1.224;2023-04-05T11:36:12;14.55;;;6.47;;
70543;SDS011;58097;48.364;-1.224;2023-04-05T11:38:42;13.88;;;6.90;;
70543;SDS011;58097;48.364;-1.224;2023-04-05T11:43:42;12.30;;;6.72;;
70543;SDS011;58097;48.364;-1.224;2023-04-05T11:46:08;11.65;;;7.38;;
70543;SDS011;58097;48.364;-1.224;2023-04-05T11:48:34;12.18;;;7.03;;
70543;SDS011;58097;48.364;-1.224;2023-04-05T11:51:02;11.30;;;6.45;;
70543;SDS011;58097;48.364;-1.224;2023-04-05T11:53:33;11.05;;;7.03;;
70543;SDS011;58097;48.364;-1.224;2023-04-05T11:56:05;10.40;;;7.07;;
70543;SDS011;58097;48.364;-1.224;2023-04-05T11:58:32;16.02;;;7.65;;
70543;SDS011;58097;48.364;-1.224;2023-04-05T12:00:58;17.05;;;6.85;;
70543;SDS011;58097;48.364;-1.224;2023-04-05T12:03:26;9.85;;;6.72;;
70543;SDS011;58097;48.364;-1.224;2023-04-05T12:05:55;7.78;;;5.30;;
70543;SDS011;58097;48.364;-1.224;2023-04-05T12:08:23;9.15;;;6.00;;
70543;SDS011;58097;48.364;-1.224;2023-04-05T12:11:05;10.52;;;5.63;;
70543;SDS011;58097;48.364;-1.224;2023-04-05T12:13:32;8.82;;;6.22;;
70543;SDS011;58097;48.364;-1.224;2023-04-05T12:15:58;11.95;;;6.28;;
70543;SDS011;58097;48.364;-1.224;2023-04-05T12:18:25;13.25;;;7.55;;
70543;SDS011;58097;48.364;-1.224;2023-04-05T12:20:52;9.23;;;6.10;;
70543;SDS011;58097;48.364;-1.224;2023-04-05T12:23:18;8.95;;;5.90;;
70543;SDS011;58097;48.364;-1.224;2023-04-05T12:25:48;9.93;;;6.63;;
70543;SDS011;58097;48.364;-1.224;2023-04-05T12:28:14;9.90;;;6.05;;
70543;SDS011;58097;48.364;-1.224;2023-04-05T12:30:49;9.32;;;6.90;;
70543;SDS011;58097;48.364;-1.224;2023-04-05T12:33:52;10.77;;;7.70;;
70543;SDS011;58097;48.364;-1.224;2023-04-05T12:36:10;11.48;;;7.20;;
70543;SDS011;58097;48.364;-1.224;2023-04-05T12:38:38;10.40;;;6.85;;
70543;SDS011;58097;48.364;-1.224;2023-04-05T12:41:04;8.00;;;5.95;;
70543;SDS011;58097;48.364;-1.224;2023-04-05T12:43:39;12.15;;;7.72;;
70543;SDS011;58097;48.364;-1.224;2023-04-05T12:46:15;11.50;;;7.63;;
70543;SDS011;58097;48.364;-1.224;2023-04-05T12:48:41;9.25;;;6.00;;
70543;SDS011;58097;48.364;-1.224;2023-04-05T12:51:13;13.35;;;7.63;;
70543;SDS011;58097;48.364;-1.224;2023-04-05T12:53:46;10.70;;;6.78;;
70543;SDS011;58097;48.364;-1.224;2023-04-05T12:56:12;12.25;;;7.45;;
70543;SDS011;58097;48.364;-1.224;2023-04-05T12:58:39;11.90;;;6.95;;
70543;SDS011;58097;48.364;-1.224;2023-04-05T13:01:05;9.07;;;6.40;;
70543;SDS011;58097;48.364;-1.224;2023-04-05T13:03:31;12.68;;;7.00;;
70543;SDS011;58097;48.364;-1.224;2023-04-05T13:05:56;11.25;;;6.80;;
70543;SDS011;58097;48.364;-1.224;2023-04-05T13:08:22;8.85;;;7.05;;
70543;SDS011;58097;48.364;-1.224;2023-04-05T13:10:48;12.02;;;6.97;;
70543;SDS011;58097;48.364;-1.224;2023-04-05T13:13:14;10.95;;;7.25;;
70543;SDS011;58097;48.364;-1.224;2023-04-05T13:15:40;12.52;;;8.07;;
70543;SDS011;58097;48.364;-1.224;2023-04-05T13:18:07;14.48;;;8.55;;
70543;SDS011;58097;48.364;-1.224;2023-04-05T13:20:32;14.20;;;8.57;;
70543;SDS011;58097;48.364;-1.224;2023-04-05T13:22:58;14.15;;;8.70;;
70543;SDS011;58097;48.364;-1.224;2023-04-05T13:25:24;12.52;;;8.40;;
70543;SDS011;58097;48.364;-1.224;2023-04-05T13:27:49;14.02;;;7.35;;
70543;SDS011;58097;48.364;-1.224;2023-04-05T13:30:15;13.43;;;8.18;;
70543;SDS011;58097;48.364;-1.224;2023-04-05T13:32:41;14.95;;;9.25;;
70543;SDS011;58097;48.364;-1.224;2023-04-05T13:36:04;19.02;;;8.30;;
70543;SDS011;58097;48.364;-1.224;2023-04-05T13:38:30;16.98;;;9.15;;
70543;SDS011;58097;48.364;-1.224;2023-04-05T13:40:55;11.77;;;8.02;;
70543;SDS011;58097;48.364;-1.224;2023-04-05T13:43:20;11.00;;;8.70;;
70543;SDS011;58097;48.364;-1.224;2023-04-05T13:45:46;12.25;;;7.85;;
70543;SDS011;58097;48.364;-1.224;2023-04-05T13:48:11;10.43;;;7.60;;
70543;SDS011;58097;48.364;-1.224;2023-04-05T13:50:37;15.57;;;8.75;;
70543;SDS011;58097;48.364;-1.224;2023-04-05T13:53:02;13.65;;;8.20;;
70543;SDS011;58097;48.364;-1.224;2023-04-05T13:55:27;15.38;;;7.95;;
70543;SDS011;58097;48.364;-1.224;2023-04-05T13:57:53;12.88;;;8.15;;
70543;SDS011;58097;48.364;-1.224;2023-04-05T14:00:18;10.88;;;8.45;;
70543;SDS011;58097;48.364;-1.224;2023-04-05T14:02:43;11.38;;;7.53;;
70543;SDS011;58097;48.364;-1.224;2023-04-05T14:05:09;16.13;;;8.98;;
70543;SDS011;58097;48.364;-1.224;2023-04-05T14:07:35;15.23;;;9.15;;
70543;SDS011;58097;48.364;-1.224;2023-04-05T14:10:01;14.75;;;8.40;;
70543;SDS011;58097;48.364;-1.224;2023-04-05T14:12:26;14.05;;;8.98;;
70543;SDS011;58097;48.364;-1.224;2023-04-05T14:14:51;10.25;;;8.25;;
70543;SDS011;58097;48.364;-1.224;2023-04-05T14:17:17;18.20;;;9.32;;
70543;SDS011;58097;48.364;-1.224;2023-04-05T14:19:42;14.07;;;9.55;;
70543;SDS011;58097;48.364;-1.224;2023-04-05T14:22:07;13.85;;;9.20;;
70543;SDS011;58097;48.364;-1.224;2023-04-05T14:24:33;15.73;;;8.85;;
70543;SDS011;58097;48.364;-1.224;2023-04-05T14:26:58;11.35;;;8.15;;
70543;SDS011;58097;48.364;-1.224;2023-04-05T14:29:25;11.90;;;8.55;;
70543;SDS011;58097;48.364;-1.224;2023-04-05T14:31:50;14.35;;;9.30;;
70543;SDS011;58097;48.364;-1.224;2023-04-05T14:34:16;13.68;;;9.20;;
70543;SDS011;58097;48.364;-1.224;2023-04-05T14:36:42;15.07;;;9.68;;
70543;SDS011;58097;48.364;-1.224;2023-04-05T14:39:07;10.95;;;8.30;;
70543;SDS011;58097;48.364;-1.224;2023-04-05T14:41:33;13.10;;;9.88;;
70543;SDS011;58097;48.364;-1.224;2023-04-05T14:43:59;15.00;;;9.10;;
70543;SDS011;58097;48.364;-1.224;2023-04-05T14:46:24;17.08;;;9.13;;
70543;SDS011;58097;48.364;-1.224;2023-04-05T14:48:49;13.38;;;8.02;;
70543;SDS011;58097;48.364;-1.224;2023-04-05T14:51:15;15.55;;;8.73;;
70543;SDS011;58097;48.364;-1.224;2023-04-05T14:53:40;13.30;;;8.75;;
70543;SDS011;58097;48.364;-1.224;2023-04-05T14:56:06;16.52;;;10.00;;
70543;SDS011;58097;48.364;-1.224;2023-04-05T14:58:34;16.20;;;9.15;;
70543;SDS011;58097;48.364;-1.224;2023-04-05T15:01:00;14.80;;;9.43;;
70543;SDS011;58097;48.364;-1.224;2023-04-05T15:03:25;12.35;;;8.40;;